Weather at Fort Wayne International Airport

Public forecast

Using degrees Fahrenheit for public forecast. Weather courtesy of forecast.io.

Current aviation weather report (METAR) for Fort Wayne International Airport

Retrieved 2021/12/07 22:54 UTC (40 minutes ago):

KFWA 072254Z 20005KT 10SM FEW090 BKN140 OVC250 M05/M11 A3018 RMK AO2 SLP234 T10501106

Aviation forecast (TAF) for Fort Wayne International Airport

Retrieved 2021/12/07 18:22 UTC (5 hours ago):

TAF KFWA 071720Z 0718/0818 24005KT P6SM BKN100 FM080700 18003KT P6SM BKN040